Airfield :
LOGIN :

Register | Disclaimer

   EN    FR    IT 

 










Legend :    VFR   Marginal VFR   IFR   Intensive IFR   Very Intensive IFR
Visi :
Ceiling :
>= 8 km
>= 3000ft
5 to 8 km
1000 to 3000 ft
1500m to 5 km
500 to 1000 ft
800 to 1500m
200 to 500 ft
< 800m
< 200 ft
Symbols :   Thunderstorms  Fog  Heavy snow  Heavy precipitations  Wind > 20 kt
SIGMETs :     Misc.  Thunderstorms  Icing  Turbulence  Mountain Waves  Volcanic Ashes






- Airport Elevation : 2031 ft


LEGT - Madrid Getafe

CURRENT METAR :
  • 220700Z 18006KT 9999 -RA SCT030 BKN049 08/08 Q1002

EXPIRED METARs :
  • 220600Z 17006KT 9999 FEW010 SCT025 08/07 Q1003
  • 220500Z 19005KT 7000 -RA FEW011 BKN018 OVC030 08/07 Q1004

TAF COR TAF LEGT
Valid from the 22 at 06:00 until the 22 at 15:00 UTC


220556Z 2206/2215 19006KT 9999 SCT011 BKN018 OVC030
PROB40
TEMPO 2206/2215 22016KT 2000 RADZ BR BKN009
PROB40
TEMPO 2212/2215 22015G30KT



MET'MAP, your aeronautical weather chart ! - Copyright ORBIFLY December 2007 - Disclaimer

ORBIFLY MET'MAP TEAM :

Programming & Development : Alexandra Zaïnal
Concept & Development : Baudouin d'Aumeries
Co-Development & Prog : Marc-Olivier Méhu
Technical & hardware support : Manuel Goepfert

Contact : metmap@orbifly.com




SOURCES & CREDITS :

   NOAA